Time;durP1;ratioP1;P1;durP2;ratioP2;P2;SDS_P1;SDS_P2;PMS_P1;PMS_P2;Temp;Humidity;BMP_temperature;BMP_pressure;BME280_temperature;BME280_humidity;BME280_pressure;Samples;Min_cycle;Max_cycle;Signal;HPM_P1;HPM_P2
2022/03/20 00:00:14;;;;;;;7.47;4.38;;;;;;;5.79;67.44;103492.47;5093538;28;20024;-67
2022/03/20 00:02:41;;;;;;;6.63;4.50;;;;;;;5.76;67.60;103481.56;5093769;28;20034;-67
2022/03/20 00:05:07;;;;;;;9.80;4.53;;;;;;;5.80;67.29;103478.72;5092673;28;20027;-68
2022/03/20 00:07:34;;;;;;;9.35;4.22;;;;;;;5.80;67.22;103481.28;5091838;28;20715;-69
2022/03/20 00:10:00;;;;;;;11.85;5.15;;;;;;;5.78;67.09;103477.16;5073573;28;20111;-68
2022/03/20 00:12:26;;;;;;;8.95;4.68;;;;;;;5.85;67.04;103471.56;5074779;28;20024;-68
2022/03/20 00:14:51;;;;;;;9.70;5.00;;;;;;;5.83;67.35;103475.13;5073936;28;20070;-67
2022/03/20 00:17:17;;;;;;;9.40;5.63;;;;;;;5.80;66.98;103465.88;5075002;28;20032;-68
2022/03/20 00:19:42;;;;;;;7.10;4.55;;;;;;;5.63;67.81;103466.84;5093060;28;20048;-68
2022/03/20 00:22:08;;;;;;;8.68;5.15;;;;;;;5.75;67.39;103470.44;5075009;28;20020;-68
2022/03/20 00:24:34;;;;;;;8.80;5.20;;;;;;;5.64;67.03;103454.88;5093081;28;20020;-68
2022/03/20 00:27:00;;;;;;;10.05;5.63;;;;;;;5.67;67.13;103464.97;5076144;28;20060;-68
2022/03/20 00:29:26;;;;;;;12.15;5.20;;;;;;;5.66;67.68;103460.72;5097297;28;20027;-66
2022/03/20 00:31:52;;;;;;;9.60;5.65;;;;;;;5.61;67.82;103455.03;5096328;28;20016;-67
2022/03/20 00:34:18;;;;;;;9.32;5.35;;;;;;;5.61;67.66;103458.44;5097172;28;20074;-68
2022/03/20 00:36:43;;;;;;;8.75;5.20;;;;;;;5.69;67.25;103459.72;5097111;28;20035;-67
2022/03/20 00:39:09;;;;;;;9.02;5.32;;;;;;;5.57;67.49;103449.25;5097107;28;20012;-67
2022/03/20 00:41:34;;;;;;;11.93;6.10;;;;;;;5.52;67.97;103446.13;5097068;28;20034;-68
2022/03/20 00:43:59;;;;;;;11.13;5.47;;;;;;;5.50;67.94;103447.97;5079083;28;20111;-67
2022/03/20 00:46:27;;;;;;;12.80;5.60;;;;;;;5.47;68.39;103442.16;5097417;28;20027;-67
2022/03/20 00:48:53;;;;;;;11.25;5.75;;;;;;;5.55;68.33;103443.41;5078250;28;20048;-67
2022/03/20 00:51:18;;;;;;;11.00;5.88;;;;;;;5.42;67.90;103442.44;5077681;28;20026;-67
2022/03/20 00:53:43;;;;;;;11.02;6.68;;;;;;;5.46;67.77;103430.28;5078020;28;20367;-67
2022/03/20 00:56:08;;;;;;;12.07;6.38;;;;;;;5.38;68.47;103431.56;5095941;28;20110;-67
2022/03/20 00:58:34;;;;;;;11.68;6.32;;;;;;;5.40;68.61;103434.84;5095856;28;20104;-68
2022/03/20 01:00:59;;;;;;;10.75;6.45;;;;;;;5.50;68.64;103437.72;5095712;28;20035;-68
2022/03/20 01:03:25;;;;;;;14.20;6.60;;;;;;;5.51;68.03;103426.53;5077595;28;20115;-66
2022/03/20 01:05:50;;;;;;;11.50;6.20;;;;;;;5.38;68.41;103423.00;5095765;28;20023;-66
2022/03/20 01:08:15;;;;;;;13.35;6.40;;;;;;;5.35;68.76;103413.78;5077809;28;20467;-67
2022/03/20 01:10:41;;;;;;;11.88;6.72;;;;;;;5.39;68.79;103414.41;5095961;28;20119;-67
2022/03/20 01:13:06;;;;;;;11.85;6.35;;;;;;;5.30;68.60;103413.22;5095608;28;20062;-69
2022/03/20 01:15:32;;;;;;;14.70;7.07;;;;;;;5.32;68.65;103397.72;5077276;28;20043;-67
2022/03/20 01:17:58;;;;;;;13.63;6.90;;;;;;;5.31;69.11;103396.91;5077579;28;20024;-68
2022/03/20 01:20:23;;;;;;;11.30;7.15;;;;;;;5.25;69.48;103397.25;5077556;28;20523;-67
2022/03/20 01:22:49;;;;;;;13.63;6.65;;;;;;;5.24;69.77;103393.06;5077209;28;20123;-66
2022/03/20 01:25:15;;;;;;;16.02;7.20;;;;;;;5.13;70.27;103387.72;5077068;28;20069;-66
2022/03/20 01:27:41;;;;;;;13.63;7.45;;;;;;;5.23;70.29;103383.69;5095731;28;20024;-68
2022/03/20 01:30:07;;;;;;;12.40;6.68;;;;;;;5.28;70.39;103384.25;5095001;28;20023;-66
2022/03/20 01:32:33;;;;;;;10.32;6.40;;;;;;;5.22;70.89;103374.34;5095305;28;20028;-68
2022/03/20 01:34:58;;;;;;;12.50;6.50;;;;;;;5.13;71.31;103377.47;5077425;28;20031;-67
2022/03/20 01:37:24;;;;;;;12.90;6.63;;;;;;;4.94;72.52;103367.41;5077056;28;20477;-67
2022/03/20 01:39:49;;;;;;;11.82;6.43;;;;;;;4.87;72.84;103368.69;5095080;28;20475;-68
2022/03/20 01:42:14;;;;;;;12.82;6.63;;;;;;;4.77;73.54;103370.09;5077314;28;20385;-68
2022/03/20 01:44:40;;;;;;;11.68;6.78;;;;;;;4.71;73.67;103376.38;5077221;28;20058;-68
2022/03/20 01:47:06;;;;;;;12.90;6.55;;;;;;;4.78;73.56;103352.09;5076957;28;20439;-67
2022/03/20 01:49:31;;;;;;;11.68;6.78;;;;;;;4.66;74.74;103352.75;5057084;28;1101887;-67
2022/03/20 01:52:13;;;;;;;14.93;6.95;;;;;;;4.74;74.16;103359.09;5078037;28;20143;-68
2022/03/20 01:54:44;;;;;;;9.60;5.72;;;;;;;4.62;74.16;103353.84;5096422;28;20040;-67
2022/03/20 01:57:13;;;;;;;12.80;6.93;;;;;;;4.58;74.76;103342.13;5095727;28;20047;-69
2022/03/20 01:59:39;;;;;;;17.27;7.20;;;;;;;4.63;74.50;103346.09;5077915;28;20051;-67
2022/03/20 02:02:05;;;;;;;13.80;6.50;;;;;;;4.62;75.17;103335.91;5078124;28;20359;-67
2022/03/20 02:04:34;;;;;;;11.88;6.88;;;;;;;4.70;75.03;103342.25;5096506;28;20039;-68
2022/03/20 02:07:00;;;;;;;11.10;6.50;;;;;;;4.59;74.34;103339.47;5095786;28;20016;-67
2022/03/20 02:09:26;;;;;;;13.30;6.28;;;;;;;4.57;74.87;103330.22;5077396;28;20029;-67
2022/03/20 02:11:51;;;;;;;13.50;6.03;;;;;;;4.53;74.91;103327.81;5077949;28;20051;-67
2022/03/20 02:14:17;;;;;;;12.27;6.10;;;;;;;4.52;75.56;103321.06;5078124;28;20031;-66
2022/03/20 02:16:43;;;;;;;10.35;5.93;;;;;;;4.53;74.83;103311.63;5078337;28;20535;-67
2022/03/20 02:19:13;;;;;;;11.30;5.97;;;;;;;4.60;75.06;103309.53;5098420;28;20024;-68
2022/03/20 02:21:40;;;;;;;10.98;5.68;;;;;;;4.60;75.19;103307.81;5098228;28;20056;-69
2022/03/20 02:24:44;;;;;;;12.68;6.07;;;;;;;4.50;75.15;103312.63;5099100;28;20112;-67
2022/03/20 02:27:12;;;;;;;14.45;5.55;;;;;;;4.41;76.27;103295.22;5093659;28;20038;-68
2022/03/20 02:29:39;;;;;;;8.80;5.53;;;;;;;4.49;75.72;103298.19;5099459;28;20024;-68
2022/03/20 02:32:06;;;;;;;14.25;5.07;;;;;;;4.48;75.61;103288.84;5099392;28;20028;-70
2022/03/20 02:34:32;;;;;;;9.13;5.10;;;;;;;4.45;75.73;103278.75;5099908;28;20024;-70
2022/03/20 02:36:58;;;;;;;12.98;5.90;;;;;;;4.41;76.04;103272.19;5099703;28;20080;-68
2022/03/20 02:39:24;;;;;;;11.90;5.85;;;;;;;4.39;75.95;103279.09;5097574;28;20048;-68
2022/03/20 02:41:51;;;;;;;9.45;5.40;;;;;;;4.36;76.54;103268.22;5097948;28;20077;-69
2022/03/20 02:44:17;;;;;;;14.00;5.45;;;;;;;4.24;75.98;103244.13;5097865;28;20028;-66
2022/03/20 02:46:42;;;;;;;12.65;5.78;;;;;;;4.41;76.03;103259.38;5097428;28;20080;-68
2022/03/20 02:49:10;;;;;;;10.65;5.70;;;;;;;4.43;75.78;103266.94;5077762;28;20036;-67
2022/03/20 02:51:36;;;;;;;11.07;5.65;;;;;;;4.38;75.36;103259.53;5096662;28;20032;-67
2022/03/20 02:54:06;;;;;;;17.13;6.70;;;;;;;4.41;75.65;103256.00;5096173;28;20024;-67
2022/03/20 02:56:33;;;;;;;16.42;5.93;;;;;;;4.45;75.53;103249.78;5078553;28;20397;-69
2022/03/20 02:59:00;;;;;;;14.27;6.68;;;;;;;4.38;75.15;103248.50;5096290;28;20078;-67
2022/03/20 03:01:25;;;;;;;10.73;5.82;;;;;;;4.30;76.39;103246.34;5096356;28;20089;-68
2022/03/20 03:03:53;;;;;;;13.32;6.68;;;;;;;4.41;75.13;103241.44;5096093;28;20023;-68
2022/03/20 03:06:19;;;;;;;15.73;6.43;;;;;;;4.22;75.58;103233.97;5077579;28;20074;-68
2022/03/20 03:11:30;;;;;;;15.80;6.88;;;;;;;4.34;75.06;103235.00;5063573;28;20027;-68
2022/03/20 03:13:55;;;;;;;11.55;6.80;;;;;;;4.36;74.65;103230.63;5077034;28;20024;-67
2022/03/20 03:16:20;;;;;;;12.57;6.60;;;;;;;4.40;74.75;103218.47;5095241;28;20024;-67
2022/03/20 03:18:47;;;;;;;14.82;6.80;;;;;;;4.17;75.12;103222.31;5095050;28;20020;-67
2022/03/20 03:21:17;;;;;;;12.55;7.07;;;;;;;4.17;74.82;103217.22;5076705;28;20379;-68
2022/03/20 03:23:43;;;;;;;18.83;6.65;;;;;;;4.24;75.62;103216.78;5076553;28;20155;-68
2022/03/20 03:26:09;;;;;;;15.90;7.00;;;;;;;4.12;74.44;103222.59;5094586;28;20047;-68
2022/03/20 03:28:36;;;;;;;18.73;7.03;;;;;;;4.22;73.98;103220.34;5076482;28;20133;-68
2022/03/20 03:31:04;;;;;;;14.18;7.50;;;;;;;4.19;74.00;103215.41;5094206;28;20074;-68
2022/03/20 03:33:29;;;;;;;13.90;7.35;;;;;;;4.17;73.51;103210.38;5076018;28;20165;-68
2022/03/20 03:35:56;;;;;;;13.52;7.55;;;;;;;4.18;73.80;103212.03;5094311;28;20470;-67
2022/03/20 03:38:26;;;;;;;14.40;7.45;;;;;;;4.16;73.42;103203.59;5076058;28;20074;-68
2022/03/20 03:40:51;;;;;;;15.85;7.95;;;;;;;4.22;73.67;103194.75;5076039;28;20107;-67
2022/03/20 03:43:18;;;;;;;14.05;7.57;;;;;;;4.27;72.55;103192.75;5094249;28;20419;-68
2022/03/20 03:45:44;;;;;;;15.52;7.75;;;;;;;4.16;72.80;103195.09;5075886;28;20024;-67
2022/03/20 03:48:11;;;;;;;19.90;8.40;;;;;;;4.11;72.61;103181.72;5093895;28;20042;-66
2022/03/20 03:50:38;;;;;;;14.18;7.57;;;;;;;4.13;72.11;103188.41;5093960;28;20024;-66
2022/03/20 03:53:05;;;;;;;15.52;8.40;;;;;;;4.13;72.67;103177.34;5093907;28;20430;-69
2022/03/20 03:55:31;;;;;;;18.13;8.90;;;;;;;4.12;72.75;103175.72;5093845;28;20023;-68
2022/03/20 03:57:56;;;;;;;16.63;8.43;;;;;;;3.96;73.71;103179.09;5093589;28;20048;-68
2022/03/20 04:00:21;;;;;;;17.80;8.15;;;;;;;3.99;72.48;103184.06;5075692;28;20059;-67
2022/03/20 04:02:48;;;;;;;16.77;8.13;;;;;;;3.92;73.04;103175.06;5075755;28;20020;-68
2022/03/20 04:05:15;;;;;;;15.02;8.10;;;;;;;3.91;72.83;103170.03;5075584;28;20386;-68
2022/03/20 04:07:40;;;;;;;18.33;8.77;;;;;;;3.90;73.27;103168.41;5093928;28;20028;-65
2022/03/20 04:10:06;;;;;;;16.10;8.25;;;;;;;3.93;72.66;103168.22;5075690;28;20467;-68
2022/03/20 04:12:36;;;;;;;20.25;8.63;;;;;;;3.86;73.39;103156.69;5093907;28;20032;-67
2022/03/20 04:15:02;;;;;;;16.45;8.88;;;;;;;3.90;72.53;103158.97;5075423;28;20020;-67
2022/03/20 04:17:29;;;;;;;16.65;8.68;;;;;;;3.94;72.90;103151.94;5075476;28;20116;-67
2022/03/20 04:19:56;;;;;;;29.08;8.70;;;;;;;3.79;73.01;103159.56;5075684;28;20024;-66
2022/03/20 04:22:21;;;;;;;20.45;8.68;;;;;;;3.90;72.30;103151.31;5093495;28;20028;-67
2022/03/20 04:24:47;;;;;;;15.20;8.07;;;;;;;3.99;72.16;103161.03;5075580;28;20447;-68
2022/03/20 04:27:13;;;;;;;21.10;8.45;;;;;;;3.81;73.15;103152.63;5075476;28;20086;-68
2022/03/20 04:29:39;;;;;;;15.02;7.38;;;;;;;3.71;72.96;103140.44;5075376;28;20071;-67
2022/03/20 04:32:06;;;;;;;19.88;9.30;;;;;;;3.85;72.96;103140.50;5093235;28;20055;-68
2022/03/20 04:34:31;;;;;;;19.77;9.00;;;;;;;3.83;71.98;103137.22;5093673;28;20024;-68
2022/03/20 04:36:56;;;;;;;17.88;9.00;;;;;;;3.80;72.42;103133.09;5075201;28;20034;-66
2022/03/20 04:39:23;;;;;;;15.70;8.23;;;;;;;3.66;72.72;103135.59;5093509;28;20043;-67
2022/03/20 04:41:49;;;;;;;21.05;9.20;;;;;;;3.74;71.98;103125.75;5075369;28;20547;-68
2022/03/20 04:44:14;;;;;;;17.80;9.40;;;;;;;3.82;72.30;103120.22;5093477;28;20060;-68
2022/03/20 04:46:40;;;;;;;15.63;8.80;;;;;;;3.64;72.06;103116.13;5075057;28;20035;-67
2022/03/20 04:58:29;;;;;;;18.70;8.95;;;;;;;3.59;72.80;103117.19;5093150;28;20081;-67
2022/03/20 05:00:22;;;;;;;17.85;10.13;;;;;;;3.63;71.90;103091.47;5093476;28;20035;-67
2022/03/20 05:02:48;;;;;;;15.05;8.18;;;;;;;3.49;71.70;103092.22;5093346;28;20032;-67
2022/03/20 05:05:18;;;;;;;19.67;9.80;;;;;;;3.57;71.59;103090.88;5075113;28;20026;-66
2022/03/20 05:07:43;;;;;;;18.13;9.63;;;;;;;3.58;71.77;103089.16;5093000;28;20051;-67
2022/03/20 05:15:37;;;;;;;17.27;9.43;;;;;;;3.52;71.20;103064.75;5097225;28;20043;-67
2022/03/20 05:18:04;;;;;;;19.63;10.57;;;;;;;3.49;70.50;103067.47;5078552;28;20028;-68
2022/03/20 05:20:29;;;;;;;19.98;9.88;;;;;;;3.51;70.82;103060.56;5096344;28;20390;-68
2022/03/20 05:22:55;;;;;;;18.50;9.63;;;;;;;3.52;70.72;103057.06;5077308;28;20130;-69
2022/03/20 05:25:21;;;;;;;19.52;10.50;;;;;;;3.38;71.35;103041.66;5077115;28;20375;-69
2022/03/20 05:27:46;;;;;;;16.27;9.18;;;;;;;3.41;70.52;103045.78;5095329;28;20062;-68
2022/03/20 05:30:12;;;;;;;22.00;11.60;;;;;;;3.38;70.86;103057.00;5095280;28;20031;-69
2022/03/20 05:32:39;;;;;;;25.00;10.80;;;;;;;3.56;70.42;103062.84;5095256;28;20115;-68
2022/03/20 05:35:06;;;;;;;24.55;10.52;;;;;;;3.50;70.27;103064.00;5076984;28;20045;-69
2022/03/20 05:37:32;;;;;;;21.85;10.10;;;;;;;3.60;69.77;103060.03;5094155;28;20023;-68
2022/03/20 05:39:57;;;;;;;21.48;10.70;;;;;;;3.50;70.33;103056.31;5076859;28;20012;-67
2022/03/20 05:42:22;;;;;;;18.48;9.75;;;;;;;3.54;70.01;103049.31;5095070;28;20039;-67
2022/03/20 05:44:48;;;;;;;18.55;10.60;;;;;;;3.52;69.43;103041.72;5077024;28;20140;-67
2022/03/20 05:47:13;;;;;;;23.80;11.13;;;;;;;3.52;69.78;103046.84;5095091;28;20024;-69
2022/03/20 05:49:39;;;;;;;20.08;9.77;;;;;;;3.47;69.81;103038.59;5076553;28;20050;-67
2022/03/20 05:52:06;;;;;;;23.50;11.45;;;;;;;3.43;69.52;103029.47;5076756;28;20024;-68
2022/03/20 05:54:32;;;;;;;21.50;10.90;;;;;;;3.45;69.60;103034.47;5094406;28;20024;-67
2022/03/20 05:59:41;;;;;;;21.40;10.00;;;;;;;3.34;69.39;103037.66;5096181;28;20074;-68
2022/03/20 06:02:09;;;;;;;21.13;11.40;;;;;;;3.38;69.59;103034.81;5095873;28;20044;-68
2022/03/20 06:04:34;;;;;;;21.33;11.40;;;;;;;3.46;68.71;103031.03;5095988;28;20058;-66
2022/03/20 06:07:00;;;;;;;21.20;11.32;;;;;;;3.38;69.21;103024.59;5096602;28;20051;-67
2022/03/20 06:09:25;;;;;;;21.23;11.45;;;;;;;3.57;68.75;103028.72;5095953;28;20032;-67
2022/03/20 06:11:51;;;;;;;21.25;10.88;;;;;;;3.38;68.31;103026.34;5095508;28;20020;-67
2022/03/20 06:14:17;;;;;;;19.25;10.55;;;;;;;3.52;68.14;103028.94;5077791;28;20107;-67
2022/03/20 06:16:43;;;;;;;22.83;11.25;;;;;;;3.51;68.01;103011.13;5095816;28;20047;-67
2022/03/20 06:19:09;;;;;;;19.58;11.15;;;;;;;3.66;67.94;103033.31;5095963;28;20024;-67
2022/03/20 06:21:34;;;;;;;17.85;10.23;;;;;;;3.38;68.26;103021.22;5095369;28;20038;-67
2022/03/20 06:23:59;;;;;;;20.88;11.80;;;;;;;3.51;67.61;103029.88;5094954;28;20031;-67
2022/03/20 06:26:25;;;;;;;20.30;11.52;;;;;;;3.55;67.46;103018.56;5095272;28;20055;-68
2022/03/20 06:28:51;;;;;;;23.20;11.60;;;;;;;3.82;66.92;103023.00;5095485;28;20030;-69
2022/03/20 06:31:19;;;;;;;22.35;12.07;;;;;;;3.67;66.76;103017.03;5095220;28;20496;-68
2022/03/20 06:33:45;;;;;;;23.83;11.98;;;;;;;3.93;65.79;103023.22;5077096;28;20515;-68
2022/03/20 06:36:10;;;;;;;20.90;11.40;;;;;;;3.87;65.62;103021.00;5077170;28;20165;-67
2022/03/20 06:38:37;;;;;;;21.00;11.25;;;;;;;3.73;65.64;103020.97;5095373;28;20379;-66
2022/03/20 06:41:04;;;;;;;20.55;10.65;;;;;;;3.73;65.54;103015.88;5095419;28;20252;-67
2022/03/20 06:43:29;;;;;;;21.15;11.95;;;;;;;3.76;65.65;103020.81;5077161;28;20084;-67
2022/03/20 06:45:56;;;;;;;20.52;11.10;;;;;;;3.80;65.36;103020.56;5077185;28;20028;-67
2022/03/20 06:48:21;;;;;;;22.85;11.95;;;;;;;3.86;65.52;103029.63;5093694;28;20079;-68
2022/03/20 06:50:47;;;;;;;20.20;11.50;;;;;;;3.82;65.08;103020.44;5076776;28;20028;-67
2022/03/20 06:53:12;;;;;;;26.17;12.68;;;;;;;3.96;64.67;103004.31;5095017;28;20032;-68
2022/03/20 06:55:38;;;;;;;22.88;11.93;;;;;;;4.02;64.53;103009.88;5095043;28;20085;-66
2022/03/20 06:58:04;;;;;;;20.83;11.52;;;;;;;4.09;64.41;103007.81;5094610;28;20493;-67
2022/03/20 07:00:29;;;;;;;24.48;12.30;;;;;;;4.34;63.79;102994.38;5076870;28;20027;-68
2022/03/20 07:02:56;;;;;;;24.63;11.73;;;;;;;4.51;62.08;102990.81;5077336;28;20039;-67
2022/03/20 07:05:21;;;;;;;21.05;11.95;;;;;;;4.55;62.39;102999.97;5076398;28;20043;-67
2022/03/20 07:07:47;;;;;;;19.98;11.57;;;;;;;4.69;61.50;102993.97;5076584;28;20059;-68
2022/03/20 07:10:19;;;;;;;25.08;11.60;;;;;;;4.60;61.11;102982.56;5094542;28;20069;-67
2022/03/20 07:12:45;;;;;;;25.83;12.63;;;;;;;4.98;61.18;102981.94;5094761;28;20344;-68
2022/03/20 07:15:11;;;;;;;24.25;12.13;;;;;;;4.80;61.06;102972.81;5094380;28;20073;-67
2022/03/20 07:17:36;;;;;;;24.60;12.05;;;;;;;4.88;60.77;102958.63;5092577;28;20016;-68
2022/03/20 07:20:03;;;;;;;23.45;11.55;;;;;;;4.72;60.16;102957.94;5075693;28;20375;-67
2022/03/20 07:22:28;;;;;;;21.75;12.38;;;;;;;5.17;59.33;102958.53;5093099;28;20028;-66
2022/03/20 07:24:54;;;;;;;23.77;12.45;;;;;;;5.11;59.91;102946.91;5094530;28;20020;-67
2022/03/20 07:30:06;;;;;;;21.20;12.82;;;;;;;5.13;58.18;102934.00;5095048;28;20506;-70
2022/03/20 07:32:31;;;;;;;23.10;11.90;;;;;;;5.17;58.83;102932.88;5094438;28;20043;-69
2022/03/20 07:34:56;;;;;;;26.90;13.70;;;;;;;5.48;58.09;102939.41;5094024;28;20531;-68
2022/03/20 07:37:21;;;;;;;21.60;11.95;;;;;;;8.03;50.91;102923.94;5092622;28;20039;-69
2022/03/20 07:39:49;;;;;;;22.83;12.43;;;;;;;8.76;48.21;102901.94;5074588;28;20107;-68
2022/03/20 07:42:15;;;;;;;23.55;12.35;;;;;;;9.42;46.00;102910.25;5074337;28;20031;-68
2022/03/20 07:44:42;;;;;;;22.17;12.27;;;;;;;10.22;43.89;102911.28;5074778;28;20051;-68
2022/03/20 07:47:08;;;;;;;27.30;13.02;;;;;;;9.97;43.60;102927.25;5092901;28;20012;-69
2022/03/20 07:49:37;;;;;;;22.23;12.38;;;;;;;10.89;42.58;102914.09;5092550;28;20036;-68
2022/03/20 07:52:05;;;;;;;21.60;12.93;;;;;;;10.05;43.72;102912.72;5075341;28;20093;-67
2022/03/20 07:54:31;;;;;;;22.45;13.38;;;;;;;9.57;44.21;102908.16;5075530;28;20024;-68
2022/03/20 07:56:56;;;;;;;20.63;13.30;;;;;;;9.58;44.55;102894.34;5093662;28;20390;-67
2022/03/20 07:59:22;;;;;;;24.33;13.68;;;;;;;10.11;43.82;102903.63;5093275;28;20032;-67
2022/03/20 08:01:47;;;;;;;22.48;12.82;;;;;;;10.24;42.69;102914.56;5093876;28;20068;-68
2022/03/20 08:04:13;;;;;;;18.45;11.98;;;;;;;9.73;43.64;102919.81;5075370;28;20028;-68
2022/03/20 08:06:38;;;;;;;22.08;14.00;;;;;;;10.10;43.38;102907.19;5075508;28;20111;-68
2022/03/20 08:09:03;;;;;;;18.73;13.25;;;;;;;10.79;41.34;102906.34;5093571;28;20026;-67
2022/03/20 08:11:30;;;;;;;20.50;13.65;;;;;;;10.74;41.31;102893.81;5093387;28;20031;-68
2022/03/20 08:13:57;;;;;;;23.48;13.68;;;;;;;11.09;39.92;102892.44;5093643;28;20055;-68
2022/03/20 08:16:26;;;;;;;22.35;13.93;;;;;;;10.63;41.76;102869.88;5093778;28;20024;-68
2022/03/20 08:18:56;;;;;;;25.48;13.95;;;;;;;9.53;42.73;102862.91;5093674;28;20073;-67
2022/03/20 08:21:22;;;;;;;21.77;13.63;;;;;;;9.76;43.03;102860.16;5093776;28;20020;-67
2022/03/20 08:23:48;;;;;;;25.23;13.85;;;;;;;10.86;40.38;102873.81;5093592;28;20024;-67
2022/03/20 08:26:13;;;;;;;21.73;13.27;;;;;;;11.37;38.79;102861.47;5093725;28;20039;-68
2022/03/20 08:28:41;;;;;;;23.25;13.77;;;;;;;9.26;43.02;102853.97;5093512;28;20043;-67
2022/03/20 08:31:08;;;;;;;22.98;13.48;;;;;;;7.58;47.64;102857.81;5093525;28;20448;-69
2022/03/20 08:33:34;;;;;;;29.08;14.05;;;;;;;7.09;48.16;102860.69;5075591;28;20031;-69
2022/03/20 08:36:01;;;;;;;23.48;14.05;;;;;;;6.35;50.68;102844.59;5092077;28;20028;-70
2022/03/20 08:38:27;;;;;;;25.88;14.70;;;;;;;6.46;50.88;102835.19;5093514;28;20352;-68
2022/03/20 08:40:52;;;;;;;24.95;13.63;;;;;;;6.53;50.75;102844.13;5093443;28;20023;-68
2022/03/20 08:43:17;;;;;;;24.08;14.32;;;;;;;6.37;50.99;102850.47;5093612;28;20043;-68
2022/03/20 08:45:44;;;;;;;26.27;14.20;;;;;;;6.23;51.48;102841.16;5093164;28;20362;-68
2022/03/20 08:48:10;;;;;;;25.42;14.55;;;;;;;6.42;50.76;102848.38;5094265;28;20035;-68
2022/03/20 08:50:35;;;;;;;25.83;14.07;;;;;;;6.17;52.00;102839.84;5097659;28;20032;-69
2022/03/20 08:53:01;;;;;;;23.98;14.65;;;;;;;6.12;51.43;102828.25;5079650;28;20024;-69
2022/03/20 08:55:26;;;;;;;25.38;14.40;;;;;;;6.15;51.74;102841.69;5078916;28;20020;-67
2022/03/20 08:57:53;;;;;;;25.20;14.15;;;;;;;5.89;51.89;102854.53;5095667;28;20035;-68
2022/03/20 09:00:20;;;;;;;29.38;14.50;;;;;;;5.60;53.03;102842.88;5078692;28;20394;-68
2022/03/20 09:02:46;;;;;;;30.30;14.98;;;;;;;5.78;52.12;102836.50;5097125;28;20108;-66
2022/03/20 09:05:12;;;;;;;26.50;14.77;;;;;;;5.73;52.51;102835.19;5095781;28;20169;-67
2022/03/20 09:07:42;;;;;;;26.02;15.55;;;;;;;5.86;52.57;102808.56;5095776;28;20052;-69
2022/03/20 09:10:09;;;;;;;25.90;14.50;;;;;;;5.85;51.87;102806.94;5097055;28;20429;-67
2022/03/20 09:12:37;;;;;;;31.00;15.25;;;;;;;6.49;51.23;102782.78;5078724;28;20024;-66
2022/03/20 09:15:04;;;;;;;30.65;14.75;;;;;;;6.10;51.70;102774.47;5078584;28;20036;-67
2022/03/20 09:20:14;;;;;;;27.33;14.73;;;;;;;5.74;52.32;102791.44;5096748;28;20035;-67
2022/03/20 09:22:39;;;;;;;26.48;14.40;;;;;;;5.92;52.74;102785.97;5096163;28;20024;-68
2022/03/20 09:25:05;;;;;;;34.80;21.23;;;;;;;6.12;51.80;102782.84;5096156;28;20020;-67
2022/03/20 09:27:30;;;;;;;26.42;14.88;;;;;;;5.91;52.33;102792.03;5095512;28;20035;-68
2022/03/20 09:29:55;;;;;;;25.75;15.63;;;;;;;5.92;52.36;102801.38;5096629;28;20028;-66
2022/03/20 09:32:22;;;;;;;27.15;15.18;;;;;;;6.20;51.41;102802.84;5078109;28;20609;-68
2022/03/20 09:34:47;;;;;;;31.10;15.27;;;;;;;6.47;50.97;102793.19;5096537;28;20043;-69
2022/03/20 09:37:12;;;;;;;29.83;15.65;;;;;;;6.31;51.96;102787.50;5078117;28;20020;-69
2022/03/20 09:39:38;;;;;;;27.95;15.05;;;;;;;6.35;51.39;102795.81;5096287;28;20027;-68
2022/03/20 09:42:03;;;;;;;25.63;14.35;;;;;;;6.37;50.70;102807.63;5096222;28;20103;-68
2022/03/20 09:44:31;;;;;;;28.30;15.02;;;;;;;6.32;51.09;102805.34;5096325;28;20420;-67
2022/03/20 09:46:56;;;;;;;28.02;16.38;;;;;;;6.49;50.62;102806.72;5078144;28;20516;-69
2022/03/20 09:49:25;;;;;;;30.27;15.65;;;;;;;6.35;50.38;102813.78;5096032;28;20127;-68
2022/03/20 09:51:51;;;;;;;27.45;15.75;;;;;;;6.19;50.71;102809.75;5095960;28;20016;-69
2022/03/20 09:54:16;;;;;;;29.25;16.10;;;;;;;6.14;51.70;102811.00;5095366;28;20034;-69
2022/03/20 09:56:42;;;;;;;26.83;15.25;;;;;;;6.35;51.11;102808.66;5096050;28;20024;-68
2022/03/20 09:59:09;;;;;;;27.50;15.23;;;;;;;6.56;50.74;102809.69;5094558;28;20435;-68
2022/03/20 10:01:35;;;;;;;26.48;15.38;;;;;;;6.30;51.30;102806.41;5077738;28;20020;-68
2022/03/20 10:04:12;;;;;;;29.45;15.88;;;;;;;6.66;50.83;102802.94;5093882;28;20031;-67
2022/03/20 10:06:40;;;;;;;25.83;15.20;;;;;;;6.97;49.33;102803.28;5096002;28;20070;-68
2022/03/20 10:09:10;;;;;;;28.67;15.57;;;;;;;6.65;50.06;102803.06;5077851;28;20115;-68
2022/03/20 10:11:46;;;;;;;26.25;15.32;;;;;;;6.83;50.03;102790.63;5096152;28;20103;-67
2022/03/20 10:14:19;;;;;;;29.83;15.95;;;;;;;7.26;48.43;102782.28;5095715;28;20061;-68
2022/03/20 10:16:54;;;;;;;27.83;16.20;;;;;;;7.79;47.35;102775.56;5095760;28;20024;-68
2022/03/20 10:19:23;;;;;;;29.45;16.55;;;;;;;9.04;43.95;102763.84;5095214;28;20023;-68
2022/03/20 10:21:57;;;;;;;26.90;15.60;;;;;;;10.88;41.38;102734.81;5077163;28;20024;-68
2022/03/20 10:24:25;;;;;;;29.23;15.10;;;;;;;10.73;41.10;102742.22;5094471;28;20429;-68
2022/03/20 10:27:02;;;;;;;24.92;16.10;;;;;;;10.47;41.75;102734.22;5095509;28;20031;-70
2022/03/20 10:29:29;;;;;;;27.90;15.82;;;;;;;11.73;38.08;102718.16;5095443;28;20115;-68
2022/03/20 10:31:58;;;;;;;27.90;16.35;;;;;;;11.29;38.38;102699.09;5095341;28;20103;-68
2022/03/20 10:34:24;;;;;;;26.92;16.15;;;;;;;11.24;38.14;102696.91;5093958;28;20023;-69
2022/03/20 10:36:50;;;;;;;30.45;16.13;;;;;;;11.60;37.49;102706.56;5095213;28;20397;-69
2022/03/20 10:39:21;;;;;;;27.17;16.98;;;;;;;11.26;38.79;102701.97;5095406;28;20075;-69
2022/03/20 10:41:53;;;;;;;31.13;16.55;;;;;;;10.48;38.87;102702.25;5095197;28;20028;-68
2022/03/20 10:44:24;;;;;;;26.77;16.90;;;;;;;10.48;39.42;102701.44;5095120;28;20425;-69
2022/03/20 10:47:13;;;;;;;29.08;16.40;;;;;;;9.86;40.93;102706.88;5095032;28;20020;-66
2022/03/20 10:49:41;;;;;;;28.80;16.50;;;;;;;9.23;42.35;102704.56;5093523;28;20471;-67
2022/03/20 10:52:12;;;;;;;25.33;16.88;;;;;;;8.74;44.06;102733.66;5093736;28;20024;-67
2022/03/20 10:54:58;;;;;;;30.77;17.48;;;;;;;8.05;44.31;102742.63;5092835;28;20042;-69
2022/03/20 10:57:35;;;;;;;29.75;17.50;;;;;;;7.97;44.82;102739.00;5076001;28;20420;-68
2022/03/20 11:00:01;;;;;;;26.45;15.68;;;;;;;7.46;45.89;102741.22;5076752;28;20467;-69
2022/03/20 11:02:27;;;;;;;31.10;17.30;;;;;;;7.53;46.07;102722.75;5093313;28;20382;-68
2022/03/20 11:04:53;;;;;;;31.85;17.10;;;;;;;7.92;46.27;102731.69;5094853;28;20031;-67
2022/03/20 11:07:20;;;;;;;35.05;17.73;;;;;;;7.49;45.91;102753.03;5094684;28;20075;-67
2022/03/20 11:09:51;;;;;;;31.00;17.10;;;;;;;7.83;44.90;102750.44;5094340;28;20560;-68
2022/03/20 11:12:22;;;;;;;30.30;17.15;;;;;;;7.68;45.57;102755.84;5076120;28;20028;-68
2022/03/20 11:14:48;;;;;;;30.65;17.40;;;;;;;7.54;45.97;102740.66;5076552;28;20031;-66
2022/03/20 11:17:17;;;;;;;30.42;16.92;;;;;;;7.47;45.52;102750.56;5076362;28;20348;-68
2022/03/20 11:19:49;;;;;;;28.33;16.50;;;;;;;7.47;46.47;102732.56;5076311;28;20055;-68
2022/03/20 11:22:18;;;;;;;28.27;16.80;;;;;;;7.37;47.31;102738.56;5076452;28;20024;-66
2022/03/20 11:24:46;;;;;;;33.85;17.30;;;;;;;7.23;46.25;102734.47;5092967;28;20020;-68
2022/03/20 11:27:13;;;;;;;31.77;17.40;;;;;;;7.40;46.35;102739.13;5092780;28;20036;-69
2022/03/20 11:29:50;;;;;;;35.40;17.02;;;;;;;7.54;46.46;102738.06;5092761;28;20063;-68
2022/03/20 11:32:16;;;;;;;30.45;17.35;;;;;;;7.56;45.55;102736.19;5076082;28;20024;-68
2022/03/20 11:34:44;;;;;;;33.17;18.00;;;;;;;8.02;45.67;102732.56;5094084;28;20371;-70
2022/03/20 11:37:12;;;;;;;29.80;17.65;;;;;;;7.85;47.72;102723.63;5094075;28;20022;-70
2022/03/20 11:39:59;;;;;;;31.63;19.02;;;;;;;8.00;50.30;102718.16;5094095;28;20024;-67
2022/03/20 11:42:29;;;;;;;29.15;17.85;;;;;;;7.88;50.25;102720.81;5075621;28;20035;-67
2022/03/20 11:45:00;;;;;;;32.40;17.92;;;;;;;7.71;50.47;102725.63;5093989;28;20028;-68